sensor_id;sensor_type;location;lat;lon;timestamp;P1;durP1;ratioP1;P2;durP2;ratioP2
24153;SDS011;12312;53.362;-1.518;2024-01-30T00:02:40;33.50;;;12.48;;
24153;SDS011;12312;53.362;-1.518;2024-01-30T00:05:24;33.85;;;13.20;;
24153;SDS011;12312;53.362;-1.518;2024-01-30T00:08:08;33.05;;;13.02;;
24153;SDS011;12312;53.362;-1.518;2024-01-30T00:10:52;31.02;;;12.77;;
24153;SDS011;12312;53.362;-1.518;2024-01-30T00:13:36;31.98;;;12.80;;
24153;SDS011;12312;53.362;-1.518;2024-01-30T00:16:24;33.80;;;13.35;;
24153;SDS011;12312;53.362;-1.518;2024-01-30T00:19:09;39.42;;;14.00;;
24153;SDS011;12312;53.362;-1.518;2024-01-30T00:21:52;38.30;;;14.77;;
24153;SDS011;12312;53.362;-1.518;2024-01-30T00:24:36;36.20;;;14.63;;
24153;SDS011;12312;53.362;-1.518;2024-01-30T00:27:20;38.83;;;14.20;;
24153;SDS011;12312;53.362;-1.518;2024-01-30T00:30:04;48.80;;;16.85;;
24153;SDS011;12312;53.362;-1.518;2024-01-30T00:32:49;43.65;;;14.75;;
24153;SDS011;12312;53.362;-1.518;2024-01-30T00:35:33;46.40;;;16.38;;
24153;SDS011;12312;53.362;-1.518;2024-01-30T00:38:16;35.55;;;15.65;;
24153;SDS011;12312;53.362;-1.518;2024-01-30T00:41:01;40.45;;;15.02;;
24153;SDS011;12312;53.362;-1.518;2024-01-30T00:43:45;40.92;;;17.05;;
24153;SDS011;12312;53.362;-1.518;2024-01-30T00:46:29;35.38;;;15.35;;
24153;SDS011;12312;53.362;-1.518;2024-01-30T00:49:13;43.03;;;16.38;;
24153;SDS011;12312;53.362;-1.518;2024-01-30T00:51:57;38.95;;;14.75;;
24153;SDS011;12312;53.362;-1.518;2024-01-30T00:54:41;36.65;;;14.40;;
24153;SDS011;12312;53.362;-1.518;2024-01-30T00:57:25;35.60;;;13.60;;
24153;SDS011;12312;53.362;-1.518;2024-01-30T01:00:11;35.78;;;13.77;;
24153;SDS011;12312;53.362;-1.518;2024-01-30T01:02:56;33.58;;;12.70;;
24153;SDS011;12312;53.362;-1.518;2024-01-30T01:05:40;36.45;;;13.23;;
24153;SDS011;12312;53.362;-1.518;2024-01-30T01:08:24;36.63;;;13.25;;
24153;SDS011;12312;53.362;-1.518;2024-01-30T01:11:09;40.10;;;13.95;;
24153;SDS011;12312;53.362;-1.518;2024-01-30T01:13:53;38.38;;;13.45;;
24153;SDS011;12312;53.362;-1.518;2024-01-30T01:16:37;41.95;;;13.93;;
24153;SDS011;12312;53.362;-1.518;2024-01-30T01:19:21;41.45;;;14.13;;
24153;SDS011;12312;53.362;-1.518;2024-01-30T01:22:05;31.27;;;11.82;;
24153;SDS011;12312;53.362;-1.518;2024-01-30T01:24:49;31.25;;;13.55;;
24153;SDS011;12312;53.362;-1.518;2024-01-30T01:27:33;30.75;;;12.48;;
24153;SDS011;12312;53.362;-1.518;2024-01-30T01:30:18;35.28;;;12.88;;
24153;SDS011;12312;53.362;-1.518;2024-01-30T01:33:05;36.20;;;13.30;;
24153;SDS011;12312;53.362;-1.518;2024-01-30T01:35:50;26.42;;;12.27;;
24153;SDS011;12312;53.362;-1.518;2024-01-30T01:38:34;29.05;;;12.35;;
24153;SDS011;12312;53.362;-1.518;2024-01-30T01:41:18;35.65;;;12.65;;
24153;SDS011;12312;53.362;-1.518;2024-01-30T01:44:02;30.83;;;11.57;;
24153;SDS011;12312;53.362;-1.518;2024-01-30T01:46:45;29.23;;;12.02;;
24153;SDS011;12312;53.362;-1.518;2024-01-30T01:49:31;26.23;;;11.52;;
24153;SDS011;12312;53.362;-1.518;2024-01-30T01:52:15;28.60;;;10.93;;
24153;SDS011;12312;53.362;-1.518;2024-01-30T01:55:00;28.35;;;10.50;;
24153;SDS011;12312;53.362;-1.518;2024-01-30T01:57:44;26.17;;;11.57;;
24153;SDS011;12312;53.362;-1.518;2024-01-30T02:00:29;26.05;;;10.70;;
24153;SDS011;12312;53.362;-1.518;2024-01-30T02:03:14;29.50;;;10.90;;
24153;SDS011;12312;53.362;-1.518;2024-01-30T02:06:04;28.60;;;11.52;;
24153;SDS011;12312;53.362;-1.518;2024-01-30T02:08:49;22.80;;;9.80;;
24153;SDS011;12312;53.362;-1.518;2024-01-30T02:11:33;25.98;;;9.80;;
24153;SDS011;12312;53.362;-1.518;2024-01-30T02:14:17;23.05;;;9.38;;
24153;SDS011;12312;53.362;-1.518;2024-01-30T02:17:01;24.25;;;9.50;;
24153;SDS011;12312;53.362;-1.518;2024-01-30T02:19:45;9.02;;;4.60;;
24153;SDS011;12312;53.362;-1.518;2024-01-30T02:22:29;6.25;;;3.30;;
24153;SDS011;12312;53.362;-1.518;2024-01-30T02:25:13;4.22;;;2.65;;
24153;SDS011;12312;53.362;-1.518;2024-01-30T02:27:58;5.05;;;2.45;;
24153;SDS011;12312;53.362;-1.518;2024-01-30T02:30:45;4.10;;;2.30;;
24153;SDS011;12312;53.362;-1.518;2024-01-30T02:33:29;3.72;;;1.50;;
24153;SDS011;12312;53.362;-1.518;2024-01-30T02:36:13;5.35;;;2.22;;
24153;SDS011;12312;53.362;-1.518;2024-01-30T02:38:59;3.20;;;2.03;;
24153;SDS011;12312;53.362;-1.518;2024-01-30T02:41:43;4.22;;;2.17;;
24153;SDS011;12312;53.362;-1.518;2024-01-30T02:44:27;4.15;;;2.20;;
24153;SDS011;12312;53.362;-1.518;2024-01-30T02:47:11;5.60;;;2.78;;
24153;SDS011;12312;53.362;-1.518;2024-01-30T02:49:55;3.63;;;2.03;;
24153;SDS011;12312;53.362;-1.518;2024-01-30T02:52:39;4.30;;;2.30;;
24153;SDS011;12312;53.362;-1.518;2024-01-30T02:55:23;4.85;;;2.30;;
24153;SDS011;12312;53.362;-1.518;2024-01-30T02:58:07;8.00;;;2.80;;
24153;SDS011;12312;53.362;-1.518;2024-01-30T03:00:51;6.53;;;2.60;;
24153;SDS011;12312;53.362;-1.518;2024-01-30T03:03:35;5.03;;;2.83;;
24153;SDS011;12312;53.362;-1.518;2024-01-30T03:06:19;3.63;;;1.83;;
24153;SDS011;12312;53.362;-1.518;2024-01-30T03:09:04;3.30;;;2.17;;
24153;SDS011;12312;53.362;-1.518;2024-01-30T03:11:48;2.65;;;1.65;;
24153;SDS011;12312;53.362;-1.518;2024-01-30T03:14:32;1.75;;;1.13;;
24153;SDS011;12312;53.362;-1.518;2024-01-30T03:17:16;2.90;;;1.60;;
24153;SDS011;12312;53.362;-1.518;2024-01-30T03:20:00;2.55;;;1.33;;
24153;SDS011;12312;53.362;-1.518;2024-01-30T03:22:44;2.40;;;1.55;;
24153;SDS011;12312;53.362;-1.518;2024-01-30T03:25:28;2.40;;;1.42;;
24153;SDS011;12312;53.362;-1.518;2024-01-30T03:28:12;1.92;;;1.20;;
24153;SDS011;12312;53.362;-1.518;2024-01-30T03:30:56;1.88;;;1.20;;
24153;SDS011;12312;53.362;-1.518;2024-01-30T03:33:40;1.65;;;1.10;;
24153;SDS011;12312;53.362;-1.518;2024-01-30T03:36:24;0.82;;;0.70;;
24153;SDS011;12312;53.362;-1.518;2024-01-30T03:39:08;1.27;;;0.85;;
24153;SDS011;12312;53.362;-1.518;2024-01-30T03:41:52;0.70;;;0.60;;
24153;SDS011;12312;53.362;-1.518;2024-01-30T03:44:36;0.93;;;0.60;;
24153;SDS011;12312;53.362;-1.518;2024-01-30T03:47:20;0.45;;;0.45;;
24153;SDS011;12312;53.362;-1.518;2024-01-30T03:50:04;0.93;;;0.63;;
24153;SDS011;12312;53.362;-1.518;2024-01-30T03:52:49;0.55;;;0.55;;
24153;SDS011;12312;53.362;-1.518;2024-01-30T03:55:33;0.50;;;0.40;;
24153;SDS011;12312;53.362;-1.518;2024-01-30T03:58:17;0.60;;;0.60;;
24153;SDS011;12312;53.362;-1.518;2024-01-30T04:01:01;0.52;;;0.52;;
24153;SDS011;12312;53.362;-1.518;2024-01-30T04:03:45;0.43;;;0.43;;
24153;SDS011;12312;53.362;-1.518;2024-01-30T04:06:29;0.40;;;0.40;;
24153;SDS011;12312;53.362;-1.518;2024-01-30T04:09:13;0.45;;;0.45;;
24153;SDS011;12312;53.362;-1.518;2024-01-30T04:11:58;0.95;;;0.75;;
24153;SDS011;12312;53.362;-1.518;2024-01-30T04:14:42;0.50;;;0.50;;
24153;SDS011;12312;53.362;-1.518;2024-01-30T04:17:26;1.48;;;0.70;;
24153;SDS011;12312;53.362;-1.518;2024-01-30T04:20:15;1.73;;;0.80;;
24153;SDS011;12312;53.362;-1.518;2024-01-30T04:23:02;0.77;;;0.70;;
24153;SDS011;12312;53.362;-1.518;2024-01-30T04:25:46;1.20;;;0.70;;
24153;SDS011;12312;53.362;-1.518;2024-01-30T04:28:30;0.60;;;0.60;;
24153;SDS011;12312;53.362;-1.518;2024-01-30T04:31:14;1.15;;;0.70;;
24153;SDS011;12312;53.362;-1.518;2024-01-30T04:33:58;1.40;;;1.05;;
24153;SDS011;12312;53.362;-1.518;2024-01-30T04:36:44;1.50;;;0.85;;
24153;SDS011;12312;53.362;-1.518;2024-01-30T04:39:29;1.65;;;1.00;;
24153;SDS011;12312;53.362;-1.518;2024-01-30T04:42:13;1.98;;;1.20;;
24153;SDS011;12312;53.362;-1.518;2024-01-30T04:44:57;1.42;;;0.73;;
24153;SDS011;12312;53.362;-1.518;2024-01-30T04:47:41;1.13;;;0.70;;
24153;SDS011;12312;53.362;-1.518;2024-01-30T04:50:25;1.30;;;0.98;;
24153;SDS011;12312;53.362;-1.518;2024-01-30T04:53:10;1.60;;;0.90;;
24153;SDS011;12312;53.362;-1.518;2024-01-30T04:55:54;0.90;;;0.60;;
24153;SDS011;12312;53.362;-1.518;2024-01-30T04:58:38;1.92;;;1.10;;
24153;SDS011;12312;53.362;-1.518;2024-01-30T05:01:22;2.65;;;1.38;;
24153;SDS011;12312;53.362;-1.518;2024-01-30T05:04:09;1.73;;;1.20;;
24153;SDS011;12312;53.362;-1.518;2024-01-30T05:06:54;2.38;;;1.23;;
24153;SDS011;12312;53.362;-1.518;2024-01-30T05:09:38;2.15;;;1.15;;
24153;SDS011;12312;53.362;-1.518;2024-01-30T05:12:22;2.38;;;1.30;;
24153;SDS011;12312;53.362;-1.518;2024-01-30T05:15:06;2.10;;;1.23;;
24153;SDS011;12312;53.362;-1.518;2024-01-30T05:17:50;2.00;;;1.25;;
24153;SDS011;12312;53.362;-1.518;2024-01-30T05:20:34;2.00;;;1.40;;
24153;SDS011;12312;53.362;-1.518;2024-01-30T05:23:18;1.90;;;1.45;;
24153;SDS011;12312;53.362;-1.518;2024-01-30T05:26:02;4.22;;;1.30;;
24153;SDS011;12312;53.362;-1.518;2024-01-30T05:28:46;2.90;;;1.05;;
24153;SDS011;12312;53.362;-1.518;2024-01-30T05:31:30;2.00;;;1.30;;
24153;SDS011;12312;53.362;-1.518;2024-01-30T05:34:14;3.83;;;1.40;;
24153;SDS011;12312;53.362;-1.518;2024-01-30T05:36:58;1.80;;;1.00;;
24153;SDS011;12312;53.362;-1.518;2024-01-30T05:39:42;1.90;;;1.20;;
24153;SDS011;12312;53.362;-1.518;2024-01-30T05:42:26;3.13;;;1.20;;
24153;SDS011;12312;53.362;-1.518;2024-01-30T05:45:10;2.17;;;1.00;;
24153;SDS011;12312;53.362;-1.518;2024-01-30T05:47:54;2.15;;;0.80;;
24153;SDS011;12312;53.362;-1.518;2024-01-30T05:50:38;1.58;;;0.90;;
24153;SDS011;12312;53.362;-1.518;2024-01-30T05:53:22;1.48;;;0.90;;
24153;SDS011;12312;53.362;-1.518;2024-01-30T05:56:06;1.30;;;0.70;;
24153;SDS011;12312;53.362;-1.518;2024-01-30T05:58:50;1.17;;;0.85;;
24153;SDS011;12312;53.362;-1.518;2024-01-30T06:01:34;1.52;;;0.77;;
24153;SDS011;12312;53.362;-1.518;2024-01-30T06:04:19;1.05;;;0.80;;
24153;SDS011;12312;53.362;-1.518;2024-01-30T06:07:03;1.30;;;0.88;;
24153;SDS011;12312;53.362;-1.518;2024-01-30T06:09:49;2.03;;;0.77;;
24153;SDS011;12312;53.362;-1.518;2024-01-30T06:12:33;1.00;;;0.80;;
24153;SDS011;12312;53.362;-1.518;2024-01-30T06:15:17;1.20;;;0.43;;
24153;SDS011;12312;53.362;-1.518;2024-01-30T06:18:01;0.82;;;0.60;;
24153;SDS011;12312;53.362;-1.518;2024-01-30T06:20:44;0.77;;;0.70;;
24153;SDS011;12312;53.362;-1.518;2024-01-30T06:23:29;1.17;;;0.88;;
24153;SDS011;12312;53.362;-1.518;2024-01-30T06:26:13;0.98;;;0.70;;
24153;SDS011;12312;53.362;-1.518;2024-01-30T06:28:57;0.68;;;0.55;;
24153;SDS011;12312;53.362;-1.518;2024-01-30T06:31:41;0.88;;;0.75;;
24153;SDS011;12312;53.362;-1.518;2024-01-30T06:34:27;1.08;;;0.85;;
24153;SDS011;12312;53.362;-1.518;2024-01-30T06:37:12;1.02;;;0.80;;
24153;SDS011;12312;53.362;-1.518;2024-01-30T06:39:55;1.55;;;1.02;;
24153;SDS011;12312;53.362;-1.518;2024-01-30T06:42:39;5.57;;;0.80;;
24153;SDS011;12312;53.362;-1.518;2024-01-30T06:45:23;1.52;;;0.73;;
24153;SDS011;12312;53.362;-1.518;2024-01-30T06:48:07;1.08;;;0.70;;
24153;SDS011;12312;53.362;-1.518;2024-01-30T06:50:55;0.43;;;0.43;;
24153;SDS011;12312;53.362;-1.518;2024-01-30T06:53:41;0.40;;;0.40;;
24153;SDS011;12312;53.362;-1.518;2024-01-30T06:56:25;1.77;;;0.50;;
24153;SDS011;12312;53.362;-1.518;2024-01-30T06:59:09;0.57;;;0.47;;
24153;SDS011;12312;53.362;-1.518;2024-01-30T07:01:53;0.55;;;0.50;;
24153;SDS011;12312;53.362;-1.518;2024-01-30T07:04:37;0.70;;;0.60;;
24153;SDS011;12312;53.362;-1.518;2024-01-30T07:07:23;0.52;;;0.50;;
24153;SDS011;12312;53.362;-1.518;2024-01-30T07:10:07;0.68;;;0.50;;
24153;SDS011;12312;53.362;-1.518;2024-01-30T07:12:52;0.95;;;0.70;;
24153;SDS011;12312;53.362;-1.518;2024-01-30T07:15:36;1.83;;;0.50;;
24153;SDS011;12312;53.362;-1.518;2024-01-30T07:18:20;0.40;;;0.40;;
24153;SDS011;12312;53.362;-1.518;2024-01-30T07:21:04;0.95;;;0.40;;
24153;SDS011;12312;53.362;-1.518;2024-01-30T07:23:48;0.73;;;0.50;;
24153;SDS011;12312;53.362;-1.518;2024-01-30T07:26:33;0.70;;;0.60;;
24153;SDS011;12312;53.362;-1.518;2024-01-30T07:29:17;0.85;;;0.57;;
24153;SDS011;12312;53.362;-1.518;2024-01-30T07:32:01;1.00;;;0.63;;
24153;SDS011;12312;53.362;-1.518;2024-01-30T07:34:46;0.70;;;0.50;;
24153;SDS011;12312;53.362;-1.518;2024-01-30T07:37:30;1.20;;;0.52;;
24153;SDS011;12312;53.362;-1.518;2024-01-30T07:40:14;1.95;;;0.68;;
24153;SDS011;12312;53.362;-1.518;2024-01-30T07:42:58;0.50;;;0.50;;
24153;SDS011;12312;53.362;-1.518;2024-01-30T07:45:42;0.80;;;0.52;;
24153;SDS011;12312;53.362;-1.518;2024-01-30T07:48:26;0.93;;;0.65;;
24153;SDS011;12312;53.362;-1.518;2024-01-30T07:51:10;0.85;;;0.80;;
24153;SDS011;12312;53.362;-1.518;2024-01-30T07:53:53;1.38;;;0.50;;
24153;SDS011;12312;53.362;-1.518;2024-01-30T07:56:37;0.88;;;0.77;;
24153;SDS011;12312;53.362;-1.518;2024-01-30T07:59:21;1.20;;;0.65;;
24153;SDS011;12312;53.362;-1.518;2024-01-30T08:02:08;0.75;;;0.60;;
24153;SDS011;12312;53.362;-1.518;2024-01-30T08:04:52;1.13;;;0.70;;
24153;SDS011;12312;53.362;-1.518;2024-01-30T08:07:36;1.17;;;0.90;;
24153;SDS011;12312;53.362;-1.518;2024-01-30T08:10:20;0.85;;;0.68;;
24153;SDS011;12312;53.362;-1.518;2024-01-30T08:13:05;2.10;;;0.80;;
24153;SDS011;12312;53.362;-1.518;2024-01-30T08:15:49;1.40;;;1.08;;
24153;SDS011;12312;53.362;-1.518;2024-01-30T08:18:33;1.00;;;0.85;;
24153;SDS011;12312;53.362;-1.518;2024-01-30T08:21:16;1.45;;;0.90;;
24153;SDS011;12312;53.362;-1.518;2024-01-30T08:24:00;0.93;;;0.80;;
24153;SDS011;12312;53.362;-1.518;2024-01-30T08:26:45;1.83;;;0.80;;
24153;SDS011;12312;53.362;-1.518;2024-01-30T08:29:29;1.02;;;0.90;;
24153;SDS011;12312;53.362;-1.518;2024-01-30T08:32:13;1.05;;;0.90;;
24153;SDS011;12312;53.362;-1.518;2024-01-30T08:34:57;1.10;;;0.93;;
24153;SDS011;12312;53.362;-1.518;2024-01-30T08:37:42;0.88;;;0.75;;
24153;SDS011;12312;53.362;-1.518;2024-01-30T08:40:26;0.60;;;0.60;;
24153;SDS011;12312;53.362;-1.518;2024-01-30T08:43:10;0.77;;;0.65;;
24153;SDS011;12312;53.362;-1.518;2024-01-30T08:45:54;0.82;;;0.57;;
24153;SDS011;12312;53.362;-1.518;2024-01-30T08:48:38;4.75;;;0.75;;
24153;SDS011;12312;53.362;-1.518;2024-01-30T08:51:22;0.70;;;0.70;;
24153;SDS011;12312;53.362;-1.518;2024-01-30T08:54:05;0.50;;;0.50;;
24153;SDS011;12312;53.362;-1.518;2024-01-30T08:56:50;0.50;;;0.50;;
24153;SDS011;12312;53.362;-1.518;2024-01-30T08:59:36;0.75;;;0.60;;
24153;SDS011;12312;53.362;-1.518;2024-01-30T09:02:20;0.60;;;0.60;;
24153;SDS011;12312;53.362;-1.518;2024-01-30T09:05:04;0.55;;;0.55;;
24153;SDS011;12312;53.362;-1.518;2024-01-30T09:07:48;0.57;;;0.57;;
24153;SDS011;12312;53.362;-1.518;2024-01-30T09:10:32;0.60;;;0.60;;
24153;SDS011;12312;53.362;-1.518;2024-01-30T09:13:16;0.50;;;0.50;;
24153;SDS011;12312;53.362;-1.518;2024-01-30T09:16:00;1.00;;;0.73;;
24153;SDS011;12312;53.362;-1.518;2024-01-30T09:18:44;4.93;;;2.17;;
24153;SDS011;12312;53.362;-1.518;2024-01-30T09:21:31;3.60;;;1.33;;
24153;SDS011;12312;53.362;-1.518;2024-01-30T09:24:15;2.25;;;1.20;;
24153;SDS011;12312;53.362;-1.518;2024-01-30T09:26:59;1.13;;;1.02;;
24153;SDS011;12312;53.362;-1.518;2024-01-30T09:29:43;1.20;;;0.90;;
24153;SDS011;12312;53.362;-1.518;2024-01-30T09:32:26;0.70;;;0.70;;
24153;SDS011;12312;53.362;-1.518;2024-01-30T09:35:11;0.90;;;0.70;;
24153;SDS011;12312;53.362;-1.518;2024-01-30T09:37:54;0.77;;;0.60;;
24153;SDS011;12312;53.362;-1.518;2024-01-30T09:40:39;0.73;;;0.50;;
24153;SDS011;12312;53.362;-1.518;2024-01-30T09:43:23;0.68;;;0.60;;
24153;SDS011;12312;53.362;-1.518;2024-01-30T09:46:08;2.10;;;0.90;;
24153;SDS011;12312;53.362;-1.518;2024-01-30T09:48:56;0.77;;;0.70;;
24153;SDS011;12312;53.362;-1.518;2024-01-30T09:51:42;3.05;;;1.20;;
24153;SDS011;12312;53.362;-1.518;2024-01-30T09:54:28;2.05;;;0.90;;
24153;SDS011;12312;53.362;-1.518;2024-01-30T09:57:16;1.85;;;0.70;;
24153;SDS011;12312;53.362;-1.518;2024-01-30T10:00:00;2.15;;;0.90;;
24153;SDS011;12312;53.362;-1.518;2024-01-30T10:02:44;1.13;;;1.00;;
24153;SDS011;12312;53.362;-1.518;2024-01-30T10:05:29;0.80;;;0.57;;
24153;SDS011;12312;53.362;-1.518;2024-01-30T10:08:17;2.50;;;0.60;;
24153;SDS011;12312;53.362;-1.518;2024-01-30T10:11:03;0.45;;;0.45;;
24153;SDS011;12312;53.362;-1.518;2024-01-30T10:13:47;0.75;;;0.52;;
24153;SDS011;12312;53.362;-1.518;2024-01-30T10:16:31;0.40;;;0.40;;
24153;SDS011;12312;53.362;-1.518;2024-01-30T10:19:15;0.40;;;0.40;;
24153;SDS011;12312;53.362;-1.518;2024-01-30T10:22:05;0.40;;;0.40;;
24153;SDS011;12312;53.362;-1.518;2024-01-30T10:24:49;0.45;;;0.45;;
24153;SDS011;12312;53.362;-1.518;2024-01-30T10:27:34;0.40;;;0.40;;
24153;SDS011;12312;53.362;-1.518;2024-01-30T10:30:18;0.45;;;0.40;;
24153;SDS011;12312;53.362;-1.518;2024-01-30T10:33:02;0.50;;;0.50;;
24153;SDS011;12312;53.362;-1.518;2024-01-30T10:35:47;1.00;;;1.00;;
24153;SDS011;12312;53.362;-1.518;2024-01-30T10:38:32;1.17;;;0.80;;
24153;SDS011;12312;53.362;-1.518;2024-01-30T10:41:17;0.93;;;0.80;;
24153;SDS011;12312;53.362;-1.518;2024-01-30T10:44:08;0.80;;;0.80;;
24153;SDS011;12312;53.362;-1.518;2024-01-30T10:46:56;3.58;;;1.50;;
24153;SDS011;12312;53.362;-1.518;2024-01-30T10:49:47;1.30;;;0.93;;
24153;SDS011;12312;53.362;-1.518;2024-01-30T10:52:31;0.70;;;0.70;;
24153;SDS011;12312;53.362;-1.518;2024-01-30T10:55:16;0.80;;;0.80;;
24153;SDS011;12312;53.362;-1.518;2024-01-30T10:58:02;1.45;;;1.00;;
24153;SDS011;12312;53.362;-1.518;2024-01-30T11:00:46;1.95;;;0.60;;
24153;SDS011;12312;53.362;-1.518;2024-01-30T11:03:30;1.02;;;0.70;;
24153;SDS011;12312;53.362;-1.518;2024-01-30T11:06:18;0.55;;;0.55;;
24153;SDS011;12312;53.362;-1.518;2024-01-30T11:11:48;0.82;;;0.68;;
24153;SDS011;12312;53.362;-1.518;2024-01-30T11:14:37;1.00;;;1.00;;
24153;SDS011;12312;53.362;-1.518;2024-01-30T11:17:27;2.92;;;0.82;;
24153;SDS011;12312;53.362;-1.518;2024-01-30T11:20:12;0.73;;;0.70;;
24153;SDS011;12312;53.362;-1.518;2024-01-30T11:22:59;0.68;;;0.60;;
24153;SDS011;12312;53.362;-1.518;2024-01-30T11:25:45;1.20;;;0.70;;
24153;SDS011;12312;53.362;-1.518;2024-01-30T11:28:33;0.55;;;0.55;;
24153;SDS011;12312;53.362;-1.518;2024-01-30T11:31:20;0.60;;;0.60;;
24153;SDS011;12312;53.362;-1.518;2024-01-30T11:34:04;0.65;;;0.60;;
24153;SDS011;12312;53.362;-1.518;2024-01-30T11:36:55;0.77;;;0.65;;
24153;SDS011;12312;53.362;-1.518;2024-01-30T11:39:43;1.00;;;0.60;;
24153;SDS011;12312;53.362;-1.518;2024-01-30T11:42:28;2.05;;;0.90;;
24153;SDS011;12312;53.362;-1.518;2024-01-30T11:45:13;0.55;;;0.50;;
24153;SDS011;12312;53.362;-1.518;2024-01-30T11:47:57;0.85;;;0.60;;
24153;SDS011;12312;53.362;-1.518;2024-01-30T11:50:44;0.90;;;0.80;;
24153;SDS011;12312;53.362;-1.518;2024-01-30T11:53:28;0.90;;;0.80;;
24153;SDS011;12312;53.362;-1.518;2024-01-30T11:56:12;1.00;;;0.55;;
24153;SDS011;12312;53.362;-1.518;2024-01-30T11:58:56;0.50;;;0.50;;
24153;SDS011;12312;53.362;-1.518;2024-01-30T12:01:40;0.40;;;0.40;;
24153;SDS011;12312;53.362;-1.518;2024-01-30T12:04:27;0.82;;;0.60;;
24153;SDS011;12312;53.362;-1.518;2024-01-30T12:07:12;0.60;;;0.60;;
24153;SDS011;12312;53.362;-1.518;2024-01-30T12:09:59;0.40;;;0.40;;
24153;SDS011;12312;53.362;-1.518;2024-01-30T12:12:45;0.55;;;0.50;;
24153;SDS011;12312;53.362;-1.518;2024-01-30T12:15:30;0.50;;;0.50;;
24153;SDS011;12312;53.362;-1.518;2024-01-30T12:18:18;0.60;;;0.50;;
24153;SDS011;12312;53.362;-1.518;2024-01-30T12:21:02;5.15;;;0.50;;
24153;SDS011;12312;53.362;-1.518;2024-01-30T12:23:47;0.55;;;0.40;;
24153;SDS011;12312;53.362;-1.518;2024-01-30T12:26:31;0.40;;;0.40;;
24153;SDS011;12312;53.362;-1.518;2024-01-30T12:29:15;0.57;;;0.57;;
24153;SDS011;12312;53.362;-1.518;2024-01-30T12:31:59;0.50;;;0.50;;
24153;SDS011;12312;53.362;-1.518;2024-01-30T12:34:43;1.75;;;0.95;;
24153;SDS011;12312;53.362;-1.518;2024-01-30T12:37:29;0.60;;;0.60;;
24153;SDS011;12312;53.362;-1.518;2024-01-30T12:42:58;0.77;;;0.60;;
24153;SDS011;12312;53.362;-1.518;2024-01-30T12:45:42;0.80;;;0.60;;
24153;SDS011;12312;53.362;-1.518;2024-01-30T12:48:26;0.47;;;0.47;;
24153;SDS011;12312;53.362;-1.518;2024-01-30T12:51:12;1.42;;;0.65;;
24153;SDS011;12312;53.362;-1.518;2024-01-30T12:53:56;1.38;;;0.63;;
24153;SDS011;12312;53.362;-1.518;2024-01-30T12:56:40;0.60;;;0.50;;
24153;SDS011;12312;53.362;-1.518;2024-01-30T12:59:24;0.80;;;0.80;;
24153;SDS011;12312;53.362;-1.518;2024-01-30T13:02:08;0.63;;;0.60;;
24153;SDS011;12312;53.362;-1.518;2024-01-30T13:04:52;0.43;;;0.40;;
24153;SDS011;12312;53.362;-1.518;2024-01-30T13:07:37;0.47;;;0.47;;
24153;SDS011;12312;53.362;-1.518;2024-01-30T13:10:20;0.52;;;0.50;;
24153;SDS011;12312;53.362;-1.518;2024-01-30T13:13:04;0.70;;;0.40;;
24153;SDS011;12312;53.362;-1.518;2024-01-30T13:15:48;0.47;;;0.47;;
24153;SDS011;12312;53.362;-1.518;2024-01-30T13:18:33;0.70;;;0.60;;
24153;SDS011;12312;53.362;-1.518;2024-01-30T13:21:17;0.75;;;0.60;;
24153;SDS011;12312;53.362;-1.518;2024-01-30T13:24:01;1.23;;;0.80;;
24153;SDS011;12312;53.362;-1.518;2024-01-30T13:26:45;0.40;;;0.40;;
24153;SDS011;12312;53.362;-1.518;2024-01-30T13:29:29;1.52;;;0.60;;
24153;SDS011;12312;53.362;-1.518;2024-01-30T13:32:13;0.90;;;0.57;;
24153;SDS011;12312;53.362;-1.518;2024-01-30T13:34:57;2.55;;;1.17;;
24153;SDS011;12312;53.362;-1.518;2024-01-30T13:37:41;1.05;;;0.63;;
24153;SDS011;12312;53.362;-1.518;2024-01-30T13:40:25;1.10;;;0.50;;
24153;SDS011;12312;53.362;-1.518;2024-01-30T13:43:10;0.98;;;0.70;;
24153;SDS011;12312;53.362;-1.518;2024-01-30T13:45:54;0.60;;;0.60;;
24153;SDS011;12312;53.362;-1.518;2024-01-30T13:48:38;0.47;;;0.43;;
24153;SDS011;12312;53.362;-1.518;2024-01-30T13:51:22;0.70;;;0.70;;
24153;SDS011;12312;53.362;-1.518;2024-01-30T13:54:05;0.60;;;0.60;;
24153;SDS011;12312;53.362;-1.518;2024-01-30T13:56:49;0.70;;;0.50;;
24153;SDS011;12312;53.362;-1.518;2024-01-30T13:59:33;1.05;;;0.68;;
24153;SDS011;12312;53.362;-1.518;2024-01-30T14:02:17;0.52;;;0.52;;
24153;SDS011;12312;53.362;-1.518;2024-01-30T14:05:01;0.50;;;0.50;;
24153;SDS011;12312;53.362;-1.518;2024-01-30T14:07:45;1.60;;;0.70;;
24153;SDS011;12312;53.362;-1.518;2024-01-30T14:10:29;2.13;;;0.80;;
24153;SDS011;12312;53.362;-1.518;2024-01-30T14:13:14;5.00;;;0.90;;
24153;SDS011;12312;53.362;-1.518;2024-01-30T14:15:58;1.38;;;0.60;;
24153;SDS011;12312;53.362;-1.518;2024-01-30T14:18:42;0.70;;;0.57;;
24153;SDS011;12312;53.362;-1.518;2024-01-30T14:21:26;0.50;;;0.50;;
24153;SDS011;12312;53.362;-1.518;2024-01-30T14:24:10;3.13;;;0.60;;
24153;SDS011;12312;53.362;-1.518;2024-01-30T14:26:54;0.68;;;0.50;;
24153;SDS011;12312;53.362;-1.518;2024-01-30T14:29:38;0.50;;;0.50;;
24153;SDS011;12312;53.362;-1.518;2024-01-30T14:32:23;2.45;;;0.60;;
24153;SDS011;12312;53.362;-1.518;2024-01-30T14:35:07;0.80;;;0.70;;
24153;SDS011;12312;53.362;-1.518;2024-01-30T14:37:52;3.75;;;0.98;;
24153;SDS011;12312;53.362;-1.518;2024-01-30T14:40:37;1.83;;;0.95;;
24153;SDS011;12312;53.362;-1.518;2024-01-30T14:43:22;0.52;;;0.52;;
24153;SDS011;12312;53.362;-1.518;2024-01-30T14:46:06;6.55;;;2.30;;
24153;SDS011;12312;53.362;-1.518;2024-01-30T14:48:51;0.98;;;0.70;;
24153;SDS011;12312;53.362;-1.518;2024-01-30T14:51:35;1.08;;;0.70;;
24153;SDS011;12312;53.362;-1.518;2024-01-30T14:54:19;1.17;;;0.90;;
24153;SDS011;12312;53.362;-1.518;2024-01-30T14:57:03;1.95;;;0.98;;
24153;SDS011;12312;53.362;-1.518;2024-01-30T14:59:48;0.93;;;0.68;;
24153;SDS011;12312;53.362;-1.518;2024-01-30T15:02:32;1.00;;;0.82;;
24153;SDS011;12312;53.362;-1.518;2024-01-30T15:05:16;5.03;;;0.88;;
24153;SDS011;12312;53.362;-1.518;2024-01-30T15:08:01;0.50;;;0.50;;
24153;SDS011;12312;53.362;-1.518;2024-01-30T15:10:45;2.30;;;0.65;;
24153;SDS011;12312;53.362;-1.518;2024-01-30T15:13:29;1.20;;;0.80;;
24153;SDS011;12312;53.362;-1.518;2024-01-30T15:16:13;1.58;;;0.63;;
24153;SDS011;12312;53.362;-1.518;2024-01-30T15:18:57;1.60;;;0.90;;
24153;SDS011;12312;53.362;-1.518;2024-01-30T15:21:41;1.70;;;1.13;;
24153;SDS011;12312;53.362;-1.518;2024-01-30T15:24:25;1.45;;;0.70;;
24153;SDS011;12312;53.362;-1.518;2024-01-30T15:27:09;0.90;;;0.50;;
24153;SDS011;12312;53.362;-1.518;2024-01-30T15:29:53;4.25;;;1.13;;
24153;SDS011;12312;53.362;-1.518;2024-01-30T15:32:37;5.65;;;1.35;;
24153;SDS011;12312;53.362;-1.518;2024-01-30T15:35:21;2.83;;;1.13;;
24153;SDS011;12312;53.362;-1.518;2024-01-30T15:38:05;1.00;;;1.00;;
24153;SDS011;12312;53.362;-1.518;2024-01-30T15:40:52;1.55;;;0.82;;
24153;SDS011;12312;53.362;-1.518;2024-01-30T15:43:37;2.78;;;1.00;;
24153;SDS011;12312;53.362;-1.518;2024-01-30T15:46:21;6.25;;;1.33;;
24153;SDS011;12312;53.362;-1.518;2024-01-30T15:49:05;1.63;;;0.90;;
24153;SDS011;12312;53.362;-1.518;2024-01-30T15:51:50;1.30;;;0.80;;
24153;SDS011;12312;53.362;-1.518;2024-01-30T15:54:34;3.72;;;1.25;;
24153;SDS011;12312;53.362;-1.518;2024-01-30T15:57:18;2.92;;;0.80;;
24153;SDS011;12312;53.362;-1.518;2024-01-30T16:00:02;2.40;;;1.08;;
24153;SDS011;12312;53.362;-1.518;2024-01-30T16:02:46;4.75;;;0.80;;
24153;SDS011;12312;53.362;-1.518;2024-01-30T16:05:30;3.05;;;0.80;;
24153;SDS011;12312;53.362;-1.518;2024-01-30T16:08:14;2.53;;;1.10;;
24153;SDS011;12312;53.362;-1.518;2024-01-30T16:10:58;2.78;;;1.45;;
24153;SDS011;12312;53.362;-1.518;2024-01-30T16:13:42;3.63;;;1.40;;
24153;SDS011;12312;53.362;-1.518;2024-01-30T16:16:26;4.43;;;1.33;;
24153;SDS011;12312;53.362;-1.518;2024-01-30T16:19:11;2.60;;;0.90;;